sensor_id;sensor_type;location;lat;lon;timestamp;temperature;humidity
2957;DHT22;1488;51.548;7.222;2023-11-22T09:59:20;23.70;61.50
2957;DHT22;1488;51.548;7.222;2023-11-22T10:01:49;23.70;61.60
2957;DHT22;1488;51.548;7.222;2023-11-22T10:19:53;23.70;62.90
2957;DHT22;1488;51.548;7.222;2023-11-22T10:22:21;23.60;62.40
2957;DHT22;1488;51.548;7.222;2023-11-22T10:24:48;23.60;63.10
2957;DHT22;1488;51.548;7.222;2023-11-22T10:29:51;23.70;64.60
2957;DHT22;1488;51.548;7.222;2023-11-22T10:35:09;23.70;64.20
2957;DHT22;1488;51.548;7.222;2023-11-22T10:37:36;23.60;61.90
2957;DHT22;1488;51.548;7.222;2023-11-22T10:40:04;23.50;62.70
2957;DHT22;1488;51.548;7.222;2023-11-22T10:42:34;23.50;62.80
2957;DHT22;1488;51.548;7.222;2023-11-22T10:45:03;23.50;63.60
2957;DHT22;1488;51.548;7.222;2023-11-22T10:47:36;23.60;63.10
2957;DHT22;1488;51.548;7.222;2023-11-22T10:50:05;23.60;63.90
2957;DHT22;1488;51.548;7.222;2023-11-22T10:52:35;23.60;63.60
2957;DHT22;1488;51.548;7.222;2023-11-22T10:55:03;23.60;63.70
2957;DHT22;1488;51.548;7.222;2023-11-22T10:57:31;23.60;63.30
2957;DHT22;1488;51.548;7.222;2023-11-22T11:00:03;23.60;63.60
2957;DHT22;1488;51.548;7.222;2023-11-22T11:02:37;23.60;63.90
2957;DHT22;1488;51.548;7.222;2023-11-22T11:05:14;23.70;63.80
2957;DHT22;1488;51.548;7.222;2023-11-22T11:07:49;23.70;63.80
2957;DHT22;1488;51.548;7.222;2023-11-22T11:10:19;23.70;63.90
2957;DHT22;1488;51.548;7.222;2023-11-22T11:12:46;23.60;63.80
2957;DHT22;1488;51.548;7.222;2023-11-22T11:15:14;23.70;63.90
2957;DHT22;1488;51.548;7.222;2023-11-22T11:17:44;23.70;63.90
2957;DHT22;1488;51.548;7.222;2023-11-22T11:20:16;23.70;64.00
2957;DHT22;1488;51.548;7.222;2023-11-22T11:22:48;23.70;64.00
2957;DHT22;1488;51.548;7.222;2023-11-22T11:25:15;23.70;64.00
2957;DHT22;1488;51.548;7.222;2023-11-22T11:27:44;23.70;64.00
2957;DHT22;1488;51.548;7.222;2023-11-22T11:30:42;23.70;63.90
2957;DHT22;1488;51.548;7.222;2023-11-22T11:33:11;23.70;64.10
2957;DHT22;1488;51.548;7.222;2023-11-22T11:35:41;23.70;64.10
2957;DHT22;1488;51.548;7.222;2023-11-22T11:38:13;23.70;64.20
2957;DHT22;1488;51.548;7.222;2023-11-22T11:40:41;23.70;64.10
2957;DHT22;1488;51.548;7.222;2023-11-22T11:43:09;23.80;64.30
2957;DHT22;1488;51.548;7.222;2023-11-22T11:45:37;23.70;63.00
2957;DHT22;1488;51.548;7.222;2023-11-22T11:48:05;23.70;64.80
2957;DHT22;1488;51.548;7.222;2023-11-22T11:50:32;23.70;64.00
2957;DHT22;1488;51.548;7.222;2023-11-22T11:52:59;23.80;64.10
2957;DHT22;1488;51.548;7.222;2023-11-22T11:55:27;23.80;64.10
2957;DHT22;1488;51.548;7.222;2023-11-22T11:57:54;23.80;64.10
2957;DHT22;1488;51.548;7.222;2023-11-22T12:00:22;23.80;64.00
2957;DHT22;1488;51.548;7.222;2023-11-22T12:02:49;23.70;63.80
2957;DHT22;1488;51.548;7.222;2023-11-22T12:05:19;23.70;62.70
2957;DHT22;1488;51.548;7.222;2023-11-22T12:07:46;23.70;61.90
2957;DHT22;1488;51.548;7.222;2023-11-22T12:10:13;23.60;62.60
2957;DHT22;1488;51.548;7.222;2023-11-22T12:12:44;23.70;63.70
2957;DHT22;1488;51.548;7.222;2023-11-22T12:15:12;23.60;61.80
2957;DHT22;1488;51.548;7.222;2023-11-22T12:17:40;23.60;63.00
2957;DHT22;1488;51.548;7.222;2023-11-22T12:20:11;23.60;63.30
2957;DHT22;1488;51.548;7.222;2023-11-22T12:22:40;23.70;63.50
2957;DHT22;1488;51.548;7.222;2023-11-22T12:25:08;23.60;62.30
2957;DHT22;1488;51.548;7.222;2023-11-22T12:27:39;23.60;61.10
2957;DHT22;1488;51.548;7.222;2023-11-22T12:30:09;23.60;60.50
2957;DHT22;1488;51.548;7.222;2023-11-22T12:32:38;23.50;60.40
2957;DHT22;1488;51.548;7.222;2023-11-22T12:35:07;23.50;60.10
2957;DHT22;1488;51.548;7.222;2023-11-22T12:37:34;23.50;60.90
2957;DHT22;1488;51.548;7.222;2023-11-22T12:40:09;23.50;62.10
2957;DHT22;1488;51.548;7.222;2023-11-22T12:42:46;23.50;62.70
2957;DHT22;1488;51.548;7.222;2023-11-22T12:45:20;23.60;63.10
2957;DHT22;1488;51.548;7.222;2023-11-22T12:47:47;23.60;63.10
2957;DHT22;1488;51.548;7.222;2023-11-22T12:50:31;23.70;63.30
2957;DHT22;1488;51.548;7.222;2023-11-22T12:52:58;23.70;63.20
2957;DHT22;1488;51.548;7.222;2023-11-22T12:55:26;23.70;63.20
2957;DHT22;1488;51.548;7.222;2023-11-22T12:57:57;23.70;63.20
2957;DHT22;1488;51.548;7.222;2023-11-22T13:00:26;23.80;63.30
2957;DHT22;1488;51.548;7.222;2023-11-22T13:02:55;23.80;63.20
2957;DHT22;1488;51.548;7.222;2023-11-22T13:05:22;23.80;63.20
2957;DHT22;1488;51.548;7.222;2023-11-22T13:07:49;23.80;63.10
2957;DHT22;1488;51.548;7.222;2023-11-22T13:10:17;23.80;63.00
2957;DHT22;1488;51.548;7.222;2023-11-22T13:12:44;23.90;63.10
2957;DHT22;1488;51.548;7.222;2023-11-22T13:15:11;23.90;63.00
2957;DHT22;1488;51.548;7.222;2023-11-22T13:17:39;23.90;62.90
2957;DHT22;1488;51.548;7.222;2023-11-22T13:20:07;23.90;62.90
2957;DHT22;1488;51.548;7.222;2023-11-22T13:22:39;23.90;62.90
2957;DHT22;1488;51.548;7.222;2023-11-22T13:25:07;24.00;62.90
2957;DHT22;1488;51.548;7.222;2023-11-22T13:27:36;24.00;63.00
2957;DHT22;1488;51.548;7.222;2023-11-22T13:30:03;24.00;62.90
2957;DHT22;1488;51.548;7.222;2023-11-22T13:32:30;24.00;63.00
2957;DHT22;1488;51.548;7.222;2023-11-22T13:34:59;24.00;63.00
2957;DHT22;1488;51.548;7.222;2023-11-22T13:37:26;24.00;63.20
2957;DHT22;1488;51.548;7.222;2023-11-22T13:39:53;23.90;63.20
2957;DHT22;1488;51.548;7.222;2023-11-22T13:42:20;23.90;63.30
2957;DHT22;1488;51.548;7.222;2023-11-22T13:44:46;23.90;63.30
2957;DHT22;1488;51.548;7.222;2023-11-22T13:47:14;23.80;60.80
2957;DHT22;1488;51.548;7.222;2023-11-22T13:49:41;23.70;62.10
2957;DHT22;1488;51.548;7.222;2023-11-22T13:52:10;23.70;61.00
2957;DHT22;1488;51.548;7.222;2023-11-22T13:54:37;23.70;62.80
2957;DHT22;1488;51.548;7.222;2023-11-22T13:57:05;23.70;63.30
2957;DHT22;1488;51.548;7.222;2023-11-22T13:59:32;23.70;63.20
2957;DHT22;1488;51.548;7.222;2023-11-22T14:02:00;23.60;63.00
2957;DHT22;1488;51.548;7.222;2023-11-22T14:04:27;23.60;63.20
2957;DHT22;1488;51.548;7.222;2023-11-22T14:06:54;23.60;63.40
2957;DHT22;1488;51.548;7.222;2023-11-22T14:09:22;23.60;63.30
2957;DHT22;1488;51.548;7.222;2023-11-22T14:11:48;23.60;63.30
2957;DHT22;1488;51.548;7.222;2023-11-22T14:14:15;23.60;62.40
2957;DHT22;1488;51.548;7.222;2023-11-22T14:16:44;23.50;62.30
2957;DHT22;1488;51.548;7.222;2023-11-22T14:19:14;23.50;62.60
2957;DHT22;1488;51.548;7.222;2023-11-22T14:21:40;23.50;61.60
2957;DHT22;1488;51.548;7.222;2023-11-22T14:24:07;23.50;61.90
2957;DHT22;1488;51.548;7.222;2023-11-22T14:26:36;23.50;62.10
2957;DHT22;1488;51.548;7.222;2023-11-22T14:29:03;23.40;61.70
2957;DHT22;1488;51.548;7.222;2023-11-22T14:31:31;23.40;62.10
2957;DHT22;1488;51.548;7.222;2023-11-22T14:33:58;23.40;62.00
2957;DHT22;1488;51.548;7.222;2023-11-22T14:36:25;23.40;61.90
2957;DHT22;1488;51.548;7.222;2023-11-22T14:38:52;23.40;61.70
2957;DHT22;1488;51.548;7.222;2023-11-22T14:41:22;23.40;61.50
2957;DHT22;1488;51.548;7.222;2023-11-22T14:43:50;23.40;61.70
2957;DHT22;1488;51.548;7.222;2023-11-22T14:46:17;23.40;62.00
2957;DHT22;1488;51.548;7.222;2023-11-22T14:48:45;23.40;62.00
2957;DHT22;1488;51.548;7.222;2023-11-22T14:51:13;23.40;61.90
2957;DHT22;1488;51.548;7.222;2023-11-22T14:53:40;23.40;62.10
2957;DHT22;1488;51.548;7.222;2023-11-22T14:56:10;23.40;61.90
2957;DHT22;1488;51.548;7.222;2023-11-22T14:58:37;23.40;62.30
2957;DHT22;1488;51.548;7.222;2023-11-22T15:01:06;23.30;61.90
2957;DHT22;1488;51.548;7.222;2023-11-22T15:03:34;23.30;61.90
2957;DHT22;1488;51.548;7.222;2023-11-22T15:06:01;23.40;62.20
2957;DHT22;1488;51.548;7.222;2023-11-22T15:08:27;23.30;61.90
2957;DHT22;1488;51.548;7.222;2023-11-22T15:10:54;23.30;61.90
2957;DHT22;1488;51.548;7.222;2023-11-22T15:13:21;23.30;61.90
2957;DHT22;1488;51.548;7.222;2023-11-22T15:15:50;23.30;61.30
2957;DHT22;1488;51.548;7.222;2023-11-22T15:18:18;23.30;61.30
2957;DHT22;1488;51.548;7.222;2023-11-22T15:20:45;23.30;61.80
2957;DHT22;1488;51.548;7.222;2023-11-22T15:23:28;23.30;60.90
2957;DHT22;1488;51.548;7.222;2023-11-22T15:25:54;23.30;61.70
2957;DHT22;1488;51.548;7.222;2023-11-22T15:28:22;23.30;61.90
2957;DHT22;1488;51.548;7.222;2023-11-22T15:30:50;23.20;61.60
2957;DHT22;1488;51.548;7.222;2023-11-22T15:33:23;23.20;62.10
2957;DHT22;1488;51.548;7.222;2023-11-22T15:35:50;23.20;62.00
2957;DHT22;1488;51.548;7.222;2023-11-22T15:38:16;23.30;62.10
2957;DHT22;1488;51.548;7.222;2023-11-22T15:40:43;23.20;61.10
2957;DHT22;1488;51.548;7.222;2023-11-22T15:43:10;23.20;62.20
2957;DHT22;1488;51.548;7.222;2023-11-22T15:45:37;23.20;62.20
2957;DHT22;1488;51.548;7.222;2023-11-22T15:48:06;23.20;61.90
2957;DHT22;1488;51.548;7.222;2023-11-22T15:50:34;23.10;60.10
2957;DHT22;1488;51.548;7.222;2023-11-22T15:53:01;23.10;60.10
2957;DHT22;1488;51.548;7.222;2023-11-22T16:19:19;22.90;61.60
2957;DHT22;1488;51.548;7.222;2023-11-22T16:21:45;22.90;61.90
2957;DHT22;1488;51.548;7.222;2023-11-22T16:24:13;22.90;61.50
2957;DHT22;1488;51.548;7.222;2023-11-22T16:26:41;22.90;61.80
2957;DHT22;1488;51.548;7.222;2023-11-22T16:29:07;23.00;61.60
2957;DHT22;1488;51.548;7.222;2023-11-22T16:31:33;23.00;61.30
2957;DHT22;1488;51.548;7.222;2023-11-22T16:34:00;23.00;61.60
2957;DHT22;1488;51.548;7.222;2023-11-22T16:36:29;22.90;61.40
2957;DHT22;1488;51.548;7.222;2023-11-22T16:38:57;22.90;61.40
2957;DHT22;1488;51.548;7.222;2023-11-22T16:41:23;22.90;61.20
2957;DHT22;1488;51.548;7.222;2023-11-22T16:43:51;23.00;61.40
2957;DHT22;1488;51.548;7.222;2023-11-22T16:46:18;22.90;61.40
2957;DHT22;1488;51.548;7.222;2023-11-22T16:48:44;22.90;61.40
2957;DHT22;1488;51.548;7.222;2023-11-22T16:51:11;22.90;61.20
2957;DHT22;1488;51.548;7.222;2023-11-22T16:53:39;23.00;61.60
2957;DHT22;1488;51.548;7.222;2023-11-22T16:56:07;22.90;61.40
2957;DHT22;1488;51.548;7.222;2023-11-22T16:58:34;22.90;61.30
2957;DHT22;1488;51.548;7.222;2023-11-22T17:01:01;22.90;61.40
2957;DHT22;1488;51.548;7.222;2023-11-22T17:03:28;22.90;61.40
2957;DHT22;1488;51.548;7.222;2023-11-22T17:05:55;22.90;61.40
2957;DHT22;1488;51.548;7.222;2023-11-22T17:08:22;22.90;61.40
2957;DHT22;1488;51.548;7.222;2023-11-22T17:10:50;22.90;61.40
2957;DHT22;1488;51.548;7.222;2023-11-22T17:13:18;22.90;61.30
2957;DHT22;1488;51.548;7.222;2023-11-22T17:15:44;22.90;61.30
2957;DHT22;1488;51.548;7.222;2023-11-22T17:18:11;23.00;61.60
2957;DHT22;1488;51.548;7.222;2023-11-22T17:20:38;22.90;61.60
2957;DHT22;1488;51.548;7.222;2023-11-22T17:23:05;22.90;61.60
2957;DHT22;1488;51.548;7.222;2023-11-22T17:25:31;22.90;61.50
2957;DHT22;1488;51.548;7.222;2023-11-22T17:27:59;22.90;60.50
2957;DHT22;1488;51.548;7.222;2023-11-22T17:30:26;23.00;60.80
2957;DHT22;1488;51.548;7.222;2023-11-22T17:32:53;23.00;61.30
2957;DHT22;1488;51.548;7.222;2023-11-22T17:35:20;23.00;61.50
2957;DHT22;1488;51.548;7.222;2023-11-22T17:37:49;23.10;61.60
2957;DHT22;1488;51.548;7.222;2023-11-22T17:40:18;23.00;61.50
2957;DHT22;1488;51.548;7.222;2023-11-22T17:42:45;23.00;61.30
2957;DHT22;1488;51.548;7.222;2023-11-22T17:45:13;23.00;61.10
2957;DHT22;1488;51.548;7.222;2023-11-22T17:47:40;23.00;61.30
2957;DHT22;1488;51.548;7.222;2023-11-22T17:50:07;23.00;61.30
2957;DHT22;1488;51.548;7.222;2023-11-22T17:52:34;22.90;61.20
2957;DHT22;1488;51.548;7.222;2023-11-22T17:55:01;22.90;61.30
2957;DHT22;1488;51.548;7.222;2023-11-22T17:57:29;22.90;61.20
2957;DHT22;1488;51.548;7.222;2023-11-22T17:59:56;22.90;61.30
2957;DHT22;1488;51.548;7.222;2023-11-22T18:02:24;22.90;61.10
2957;DHT22;1488;51.548;7.222;2023-11-22T18:04:51;22.90;61.00
2957;DHT22;1488;51.548;7.222;2023-11-22T18:07:17;22.90;61.30
2957;DHT22;1488;51.548;7.222;2023-11-22T18:09:44;22.90;61.10
2957;DHT22;1488;51.548;7.222;2023-11-22T18:12:11;22.90;61.30
2957;DHT22;1488;51.548;7.222;2023-11-22T18:14:38;22.90;61.20
2957;DHT22;1488;51.548;7.222;2023-11-22T18:17:04;22.90;61.20
2957;DHT22;1488;51.548;7.222;2023-11-22T18:19:33;22.90;61.10
2957;DHT22;1488;51.548;7.222;2023-11-22T18:21:59;22.90;61.40
2957;DHT22;1488;51.548;7.222;2023-11-22T18:24:26;22.90;61.10
2957;DHT22;1488;51.548;7.222;2023-11-22T18:26:54;22.90;61.20
2957;DHT22;1488;51.548;7.222;2023-11-22T18:29:21;22.90;61.10
2957;DHT22;1488;51.548;7.222;2023-11-22T18:31:50;22.90;61.50
2957;DHT22;1488;51.548;7.222;2023-11-22T18:34:17;22.90;61.30
2957;DHT22;1488;51.548;7.222;2023-11-22T18:36:45;22.80;61.20
2957;DHT22;1488;51.548;7.222;2023-11-22T18:39:12;22.90;61.30
2957;DHT22;1488;51.548;7.222;2023-11-22T18:41:39;22.80;61.80
2957;DHT22;1488;51.548;7.222;2023-11-22T18:44:06;22.80;61.20
2957;DHT22;1488;51.548;7.222;2023-11-22T18:46:34;22.90;61.20
2957;DHT22;1488;51.548;7.222;2023-11-22T18:49:01;22.80;59.90
2957;DHT22;1488;51.548;7.222;2023-11-22T18:51:28;22.80;59.80
2957;DHT22;1488;51.548;7.222;2023-11-22T18:53:56;22.80;60.90
2957;DHT22;1488;51.548;7.222;2023-11-22T18:56:23;22.80;61.10
2957;DHT22;1488;51.548;7.222;2023-11-22T18:58:50;22.80;61.20
2957;DHT22;1488;51.548;7.222;2023-11-22T19:01:18;22.80;61.20
2957;DHT22;1488;51.548;7.222;2023-11-22T19:03:46;22.80;61.60
2957;DHT22;1488;51.548;7.222;2023-11-22T19:06:13;22.80;61.40
2957;DHT22;1488;51.548;7.222;2023-11-22T19:08:40;22.80;61.50
2957;DHT22;1488;51.548;7.222;2023-11-22T19:11:10;22.90;61.10
2957;DHT22;1488;51.548;7.222;2023-11-22T19:13:36;22.90;61.40
2957;DHT22;1488;51.548;7.222;2023-11-22T19:16:04;22.90;61.30
2957;DHT22;1488;51.548;7.222;2023-11-22T19:18:30;22.90;61.10
2957;DHT22;1488;51.548;7.222;2023-11-22T19:20:57;22.90;61.30
2957;DHT22;1488;51.548;7.222;2023-11-22T19:23:28;22.90;61.30
2957;DHT22;1488;51.548;7.222;2023-11-22T19:25:56;22.90;61.50
2957;DHT22;1488;51.548;7.222;2023-11-22T19:28:26;22.90;60.00
2957;DHT22;1488;51.548;7.222;2023-11-22T19:30:53;22.90;61.60
2957;DHT22;1488;51.548;7.222;2023-11-22T19:33:20;22.90;61.40
2957;DHT22;1488;51.548;7.222;2023-11-22T19:35:47;22.90;61.20
2957;DHT22;1488;51.548;7.222;2023-11-22T19:38:14;22.90;61.30
2957;DHT22;1488;51.548;7.222;2023-11-22T19:40:41;22.90;61.00
2957;DHT22;1488;51.548;7.222;2023-11-22T19:43:10;23.00;61.20
2957;DHT22;1488;51.548;7.222;2023-11-22T19:45:39;23.00;61.10
2957;DHT22;1488;51.548;7.222;2023-11-22T19:48:06;23.00;61.10
2957;DHT22;1488;51.548;7.222;2023-11-22T19:50:33;23.00;61.10
2957;DHT22;1488;51.548;7.222;2023-11-22T19:53:00;23.00;61.40
2957;DHT22;1488;51.548;7.222;2023-11-22T19:55:28;23.00;61.00
2957;DHT22;1488;51.548;7.222;2023-11-22T19:57:55;23.10;61.80
2957;DHT22;1488;51.548;7.222;2023-11-22T20:00:24;23.00;60.90
2957;DHT22;1488;51.548;7.222;2023-11-22T20:02:54;23.00;61.90
2957;DHT22;1488;51.548;7.222;2023-11-22T20:05:25;23.10;59.40
2957;DHT22;1488;51.548;7.222;2023-11-22T20:07:52;23.00;60.20
2957;DHT22;1488;51.548;7.222;2023-11-22T20:10:19;23.00;61.50
2957;DHT22;1488;51.548;7.222;2023-11-22T20:12:49;23.00;61.00
2957;DHT22;1488;51.548;7.222;2023-11-22T20:15:16;23.00;61.40
2957;DHT22;1488;51.548;7.222;2023-11-22T20:17:43;22.90;61.30
2957;DHT22;1488;51.548;7.222;2023-11-22T20:20:15;22.90;61.10
2957;DHT22;1488;51.548;7.222;2023-11-22T20:22:41;23.00;61.30
2957;DHT22;1488;51.548;7.222;2023-11-22T20:25:08;23.00;60.20
2957;DHT22;1488;51.548;7.222;2023-11-22T20:27:35;22.90;59.70
2957;DHT22;1488;51.548;7.222;2023-11-22T20:30:02;22.90;60.00
2957;DHT22;1488;51.548;7.222;2023-11-22T20:32:29;22.90;60.50
2957;DHT22;1488;51.548;7.222;2023-11-22T20:34:56;22.90;61.30
2957;DHT22;1488;51.548;7.222;2023-11-22T20:37:25;22.90;61.30
2957;DHT22;1488;51.548;7.222;2023-11-22T20:39:51;22.90;61.30
2957;DHT22;1488;51.548;7.222;2023-11-22T20:42:18;22.90;61.10
2957;DHT22;1488;51.548;7.222;2023-11-22T20:44:45;22.90;61.40
2957;DHT22;1488;51.548;7.222;2023-11-22T20:47:13;22.90;61.30
2957;DHT22;1488;51.548;7.222;2023-11-22T20:49:39;22.90;59.90
2957;DHT22;1488;51.548;7.222;2023-11-22T20:52:06;22.90;60.60
2957;DHT22;1488;51.548;7.222;2023-11-22T20:54:35;22.90;61.00
2957;DHT22;1488;51.548;7.222;2023-11-22T20:57:02;22.90;61.10
2957;DHT22;1488;51.548;7.222;2023-11-22T20:59:30;22.90;59.90
2957;DHT22;1488;51.548;7.222;2023-11-22T21:01:57;22.90;60.70
2957;DHT22;1488;51.548;7.222;2023-11-22T21:04:26;22.90;61.40
2957;DHT22;1488;51.548;7.222;2023-11-22T21:06:59;22.90;61.40
2957;DHT22;1488;51.548;7.222;2023-11-22T21:12:03;22.90;60.90
2957;DHT22;1488;51.548;7.222;2023-11-22T21:14:31;22.90;61.20
2957;DHT22;1488;51.548;7.222;2023-11-22T21:16:58;23.00;61.60
2957;DHT22;1488;51.548;7.222;2023-11-22T21:19:25;22.90;61.40
2957;DHT22;1488;51.548;7.222;2023-11-22T21:21:52;22.90;61.50
2957;DHT22;1488;51.548;7.222;2023-11-22T21:24:19;22.90;61.90
2957;DHT22;1488;51.548;7.222;2023-11-22T21:26:45;22.90;61.50
2957;DHT22;1488;51.548;7.222;2023-11-22T21:29:13;22.90;61.60
2957;DHT22;1488;51.548;7.222;2023-11-22T21:31:40;22.90;61.60
2957;DHT22;1488;51.548;7.222;2023-11-22T21:34:08;22.90;61.50
2957;DHT22;1488;51.548;7.222;2023-11-22T21:36:34;22.90;61.70
2957;DHT22;1488;51.548;7.222;2023-11-22T21:39:04;22.90;61.60
2957;DHT22;1488;51.548;7.222;2023-11-22T21:41:42;22.90;61.50
2957;DHT22;1488;51.548;7.222;2023-11-22T21:44:10;22.90;61.60
2957;DHT22;1488;51.548;7.222;2023-11-22T21:46:38;22.90;61.90
2957;DHT22;1488;51.548;7.222;2023-11-22T21:49:05;22.90;61.70
2957;DHT22;1488;51.548;7.222;2023-11-22T21:51:32;23.00;61.80
2957;DHT22;1488;51.548;7.222;2023-11-22T21:54:01;22.90;61.90
2957;DHT22;1488;51.548;7.222;2023-11-22T21:56:28;22.90;61.60
2957;DHT22;1488;51.548;7.222;2023-11-22T21:58:55;22.90;61.70
2957;DHT22;1488;51.548;7.222;2023-11-22T22:01:23;23.00;61.90
2957;DHT22;1488;51.548;7.222;2023-11-22T22:03:51;22.90;61.60
2957;DHT22;1488;51.548;7.222;2023-11-22T22:06:18;22.90;61.60
2957;DHT22;1488;51.548;7.222;2023-11-22T22:08:45;22.90;61.50
2957;DHT22;1488;51.548;7.222;2023-11-22T22:11:13;22.90;61.40
2957;DHT22;1488;51.548;7.222;2023-11-22T22:13:40;22.90;61.60
2957;DHT22;1488;51.548;7.222;2023-11-22T22:16:07;22.90;61.60
2957;DHT22;1488;51.548;7.222;2023-11-22T22:18:35;22.90;61.50
2957;DHT22;1488;51.548;7.222;2023-11-22T22:21:04;22.90;61.50
2957;DHT22;1488;51.548;7.222;2023-11-22T22:23:31;22.90;61.40
2957;DHT22;1488;51.548;7.222;2023-11-22T22:26:00;22.80;61.40
2957;DHT22;1488;51.548;7.222;2023-11-22T22:28:27;22.80;61.40
2957;DHT22;1488;51.548;7.222;2023-11-22T22:30:55;22.80;61.50
2957;DHT22;1488;51.548;7.222;2023-11-22T22:33:22;22.80;61.50
2957;DHT22;1488;51.548;7.222;2023-11-22T22:35:49;22.80;61.60
2957;DHT22;1488;51.548;7.222;2023-11-22T22:38:18;22.80;61.60
2957;DHT22;1488;51.548;7.222;2023-11-22T22:40:44;22.80;61.60
2957;DHT22;1488;51.548;7.222;2023-11-22T22:43:11;22.80;61.60
2957;DHT22;1488;51.548;7.222;2023-11-22T22:45:38;22.70;61.40
2957;DHT22;1488;51.548;7.222;2023-11-22T22:48:11;22.70;61.60
2957;DHT22;1488;51.548;7.222;2023-11-22T22:50:38;22.70;61.50
2957;DHT22;1488;51.548;7.222;2023-11-22T22:53:05;22.70;61.70
2957;DHT22;1488;51.548;7.222;2023-11-22T22:55:33;22.70;61.70
2957;DHT22;1488;51.548;7.222;2023-11-22T22:58:01;22.70;61.80
2957;DHT22;1488;51.548;7.222;2023-11-22T23:00:28;22.60;61.50
2957;DHT22;1488;51.548;7.222;2023-11-22T23:03:03;22.60;61.60
2957;DHT22;1488;51.548;7.222;2023-11-22T23:05:31;22.60;61.60
2957;DHT22;1488;51.548;7.222;2023-11-22T23:07:59;22.60;61.60
2957;DHT22;1488;51.548;7.222;2023-11-22T23:10:25;22.60;61.60
2957;DHT22;1488;51.548;7.222;2023-11-22T23:12:53;22.60;61.70
2957;DHT22;1488;51.548;7.222;2023-11-22T23:15:20;22.60;61.70
2957;DHT22;1488;51.548;7.222;2023-11-22T23:17:48;22.60;61.80
2957;DHT22;1488;51.548;7.222;2023-11-22T23:20:15;22.60;61.70
2957;DHT22;1488;51.548;7.222;2023-11-22T23:22:43;22.60;61.70
2957;DHT22;1488;51.548;7.222;2023-11-22T23:25:10;22.50;61.80
2957;DHT22;1488;51.548;7.222;2023-11-22T23:27:38;22.50;61.60
2957;DHT22;1488;51.548;7.222;2023-11-22T23:30:07;22.50;61.70
2957;DHT22;1488;51.548;7.222;2023-11-22T23:32:35;22.50;61.80
2957;DHT22;1488;51.548;7.222;2023-11-22T23:35:03;22.50;61.80
2957;DHT22;1488;51.548;7.222;2023-11-22T23:37:31;22.50;61.80
2957;DHT22;1488;51.548;7.222;2023-11-22T23:39:57;22.50;61.80
2957;DHT22;1488;51.548;7.222;2023-11-22T23:42:30;22.50;62.00
2957;DHT22;1488;51.548;7.222;2023-11-22T23:44:58;22.40;61.70
2957;DHT22;1488;51.548;7.222;2023-11-22T23:47:27;22.50;61.90
2957;DHT22;1488;51.548;7.222;2023-11-22T23:49:53;22.40;61.90
2957;DHT22;1488;51.548;7.222;2023-11-22T23:52:20;22.40;61.80
2957;DHT22;1488;51.548;7.222;2023-11-22T23:54:47;22.40;61.90
2957;DHT22;1488;51.548;7.222;2023-11-22T23:57:15;22.40;62.00
2957;DHT22;1488;51.548;7.222;2023-11-22T23:59:41;22.40;61.90
